Time;durP1;ratioP1;P1;durP2;ratioP2;P2;SDS_P1;SDS_P2;PMS_P1;PMS_P2;Temp;Humidity;BMP_temperature;BMP_pressure;BME280_temperature;BME280_humidity;BME280_pressure;Samples;Min_cycle;Max_cycle;Signal;HPM_P1;HPM_P2
2022/01/06 00:00:59;;;;;;;27.83;18.67;;;;;;;5.58;70.72;94379.06;5009202;28;20203;-59
2022/01/06 00:03:27;;;;;;;27.98;19.50;;;;;;;5.38;71.09;94344.31;5009766;28;20033;-59
2022/01/06 00:05:52;;;;;;;31.60;18.30;;;;;;;5.59;71.30;94373.03;5008754;28;20038;-59
2022/01/06 00:08:18;;;;;;;28.98;19.05;;;;;;;5.49;70.83;94367.56;5009554;28;20037;-58
2022/01/06 00:10:47;;;;;;;32.47;20.80;;;;;;;5.30;71.49;94366.00;5009504;28;20509;-58
2022/01/06 00:13:15;;;;;;;27.38;18.33;;;;;;;5.39;71.27;94363.84;5009087;28;20030;-58
2022/01/06 00:18:28;;;;;;;29.23;20.27;;;;;;;5.19;71.40;94347.03;5008459;28;20562;-57
2022/01/06 00:23:42;;;;;;;29.15;19.02;;;;;;;5.18;72.19;94378.59;5009284;28;20172;-60
2022/01/06 00:26:08;;;;;;;32.08;21.02;;;;;;;4.99;72.69;94358.28;5008788;28;20040;-58
2022/01/06 00:28:35;;;;;;;27.35;20.55;;;;;;;5.15;72.13;94343.81;5007195;28;20477;-59
2022/01/06 00:31:01;;;;;;;28.55;19.48;;;;;;;5.46;72.18;94381.34;5008299;28;20508;-57
2022/01/06 00:33:29;;;;;;;30.25;19.05;;;;;;;5.48;71.32;94376.97;5009198;28;20058;-58
2022/01/06 00:35:55;;;;;;;26.60;18.52;;;;;;;5.67;70.39;94378.53;5008804;28;20026;-59
2022/01/06 00:38:22;;;;;;;29.17;18.70;;;;;;;5.37;70.61;94340.94;5007436;28;20049;-59
2022/01/06 00:40:47;;;;;;;27.35;19.90;;;;;;;5.40;71.07;94370.63;5008401;28;20033;-58
2022/01/06 00:43:13;;;;;;;28.77;19.35;;;;;;;5.31;70.79;94352.31;5008818;28;20030;-58
2022/01/06 00:45:38;;;;;;;28.40;18.77;;;;;;;5.22;71.93;94380.09;5008945;28;20033;-58
2022/01/06 00:48:10;;;;;;;30.83;18.85;;;;;;;5.28;71.85;94398.50;5008832;28;20034;-56
2022/01/06 00:50:36;;;;;;;27.92;17.85;;;;;;;5.17;71.91;94384.63;5008728;28;20033;-60
2022/01/06 00:53:04;;;;;;;29.70;18.60;;;;;;;5.17;72.34;94410.19;5008112;28;20036;-57
2022/01/06 00:55:34;;;;;;;31.20;20.58;;;;;;;5.02;73.16;94401.53;5008737;28;20520;-58
2022/01/06 00:58:00;;;;;;;29.77;19.95;;;;;;;5.02;73.68;94401.53;5008409;28;20042;-58
2022/01/06 01:00:37;;;;;;;31.70;21.17;;;;;;;4.97;73.93;94402.63;5008488;28;20736;-58
2022/01/06 01:03:05;;;;;;;33.15;21.35;;;;;;;4.73;73.90;94360.44;5008371;28;20026;-58
2022/01/06 01:05:31;;;;;;;28.23;18.98;;;;;;;5.16;73.19;94396.56;5008363;28;20221;-59
2022/01/06 01:07:56;;;;;;;33.70;21.95;;;;;;;5.08;73.38;94394.41;5008015;28;20026;-59
2022/01/06 01:10:22;;;;;;;39.55;24.30;;;;;;;5.13;73.31;94404.38;5008569;28;20025;-58
2022/01/06 01:12:48;;;;;;;29.17;19.80;;;;;;;5.31;72.51;94416.22;5008550;28;20022;-58
2022/01/06 01:15:23;;;;;;;27.27;19.52;;;;;;;5.00;71.95;94365.88;5008558;28;20039;-58
2022/01/06 01:17:51;;;;;;;30.05;21.50;;;;;;;4.93;72.98;94396.00;5007925;28;20030;-58
2022/01/06 01:20:18;;;;;;;39.25;26.13;;;;;;;4.99;73.41;94402.53;5008177;28;20034;-58
2022/01/06 01:22:44;;;;;;;48.72;32.17;;;;;;;4.93;73.83;94419.00;5008204;28;20029;-58
2022/01/06 01:25:10;;;;;;;34.42;23.90;;;;;;;5.06;73.70;94426.06;5008458;28;20552;-59
2022/01/06 01:27:42;;;;;;;29.02;20.63;;;;;;;4.89;72.34;94371.53;5008303;28;20026;-57
2022/01/06 01:30:12;;;;;;;39.08;25.98;;;;;;;4.91;73.43;94402.13;5007882;28;20034;-57
2022/01/06 01:32:39;;;;;;;52.95;36.38;;;;;;;4.86;74.02;94406.63;5008262;28;20030;-58
2022/01/06 01:35:07;;;;;;;41.67;26.95;;;;;;;4.88;73.73;94384.38;5007827;28;20100;-58
2022/01/06 01:37:34;;;;;;;34.15;21.25;;;;;;;5.00;72.35;94396.53;5008177;28;20060;-58
2022/01/06 01:40:00;;;;;;;37.88;21.70;;;;;;;4.89;73.29;94393.72;5007969;28;20076;-58
2022/01/06 01:42:27;;;;;;;33.30;22.05;;;;;;;4.69;73.65;94380.22;5008731;28;20030;-59
2022/01/06 01:44:53;;;;;;;37.03;23.50;;;;;;;4.77;73.81;94383.19;5011791;28;20058;-57
2022/01/06 01:47:42;;;;;;;34.95;21.95;;;;;;;5.04;72.77;94382.69;5011867;28;20026;-57
2022/01/06 01:50:14;;;;;;;31.90;21.52;;;;;;;4.72;73.23;94391.97;5011709;28;20034;-57
2022/01/06 01:52:43;;;;;;;49.40;32.05;;;;;;;4.40;74.44;94359.50;5011520;28;20034;-58
2022/01/06 01:55:11;;;;;;;55.92;39.63;;;;;;;4.50;75.11;94379.47;5011689;28;20535;-58
2022/01/06 01:57:36;;;;;;;65.93;43.45;;;;;;;4.50;75.64;94382.84;5011622;28;20145;-58
2022/01/06 02:00:09;;;;;;;65.57;45.45;;;;;;;4.44;76.30;94370.38;5011313;28;20113;-60
2022/01/06 02:02:35;;;;;;;61.13;38.05;;;;;;;4.50;75.63;94364.97;5011655;28;20042;-60
2022/01/06 02:05:01;;;;;;;55.63;35.75;;;;;;;4.68;74.59;94372.63;5011191;28;20119;-58
2022/01/06 02:07:27;;;;;;;61.15;37.97;;;;;;;4.62;74.64;94375.47;5011373;28;20034;-58
2022/01/06 02:09:52;;;;;;;66.10;43.33;;;;;;;4.57;75.46;94384.19;5011474;28;20042;-58
2022/01/06 02:12:31;;;;;;;59.13;39.75;;;;;;;4.76;75.16;94389.19;5011241;28;20117;-58
2022/01/06 02:14:58;;;;;;;49.80;33.08;;;;;;;4.71;74.87;94387.78;5011201;28;20650;-59
2022/01/06 02:17:23;;;;;;;57.03;34.53;;;;;;;4.57;75.07;94398.69;5010655;28;20033;-59
2022/01/06 02:19:54;;;;;;;43.28;31.50;;;;;;;4.72;74.30;94400.50;5011232;28;20048;-59
2022/01/06 02:22:20;;;;;;;42.03;27.42;;;;;;;4.65;74.68;94390.66;5011013;28;20034;-60
2022/01/06 02:24:45;;;;;;;44.50;28.33;;;;;;;4.47;75.05;94395.75;5011179;28;20057;-58
2022/01/06 02:27:11;;;;;;;38.97;26.30;;;;;;;4.57;74.59;94384.19;5011109;28;20065;-58
2022/01/06 02:29:36;;;;;;;41.22;28.33;;;;;;;4.34;75.26;94384.50;5010701;28;20038;-59
2022/01/06 02:32:07;;;;;;;60.17;38.63;;;;;;;4.37;76.09;94404.78;5010841;28;20030;-57
2022/01/06 02:34:32;;;;;;;44.40;26.70;;;;;;;4.45;75.65;94391.63;5010875;28;20478;-58
2022/01/06 02:36:58;;;;;;;43.63;30.30;;;;;;;4.66;74.80;94415.28;5010817;28;20033;-56
2022/01/06 02:39:23;;;;;;;46.47;30.88;;;;;;;4.52;74.94;94415.97;5010804;28;20101;-60
2022/01/06 02:41:49;;;;;;;37.92;25.13;;;;;;;4.53;74.90;94407.41;5010463;28;20540;-59
2022/01/06 02:44:14;;;;;;;38.22;27.02;;;;;;;4.31;75.53;94399.94;5010827;28;20412;-60
2022/01/06 02:46:40;;;;;;;44.40;27.13;;;;;;;4.02;75.63;94374.13;5010487;28;20465;-59
2022/01/06 02:49:05;;;;;;;39.05;26.45;;;;;;;4.07;75.20;94373.88;5010719;28;20742;-57
2022/01/06 02:51:31;;;;;;;37.65;25.20;;;;;;;4.21;75.45;94405.53;5010566;28;20537;-58
2022/01/06 02:53:56;;;;;;;43.35;26.13;;;;;;;4.20;75.55;94406.41;5009909;28;20045;-59
2022/01/06 02:56:21;;;;;;;34.42;24.58;;;;;;;4.17;76.04;94401.44;5010285;28;20018;-59
2022/01/06 02:58:47;;;;;;;33.35;24.45;;;;;;;4.02;75.92;94402.19;5010487;28;20068;-58
2022/01/06 03:01:12;;;;;;;39.72;25.48;;;;;;;4.22;75.41;94402.03;5010237;28;20038;-56
2022/01/06 03:03:38;;;;;;;38.10;24.63;;;;;;;4.11;75.65;94393.25;5010276;28;20034;-57
2022/01/06 03:06:03;;;;;;;40.35;24.50;;;;;;;3.94;75.74;94364.28;5009716;28;20064;-59
2022/01/06 03:08:29;;;;;;;34.10;23.75;;;;;;;4.21;75.47;94392.75;5010344;28;20034;-58
2022/01/06 03:10:56;;;;;;;34.85;23.83;;;;;;;4.14;75.57;94393.94;5009976;28;20596;-58
2022/01/06 03:13:22;;;;;;;38.80;25.35;;;;;;;4.25;74.86;94395.97;5010085;28;20030;-57
2022/01/06 03:15:47;;;;;;;36.40;24.33;;;;;;;4.25;75.36;94388.31;5010294;28;20022;-58
2022/01/06 03:18:13;;;;;;;31.55;20.85;;;;;;;4.50;73.38;94412.66;5009484;28;20045;-58
2022/01/06 03:20:38;;;;;;;29.33;21.30;;;;;;;4.11;74.45;94371.13;5010326;28;20029;-58
2022/01/06 03:23:04;;;;;;;31.20;21.23;;;;;;;4.31;75.01;94415.28;5008701;28;20435;-59
2022/01/06 03:25:29;;;;;;;30.38;20.50;;;;;;;4.18;74.78;94394.59;5010123;28;20507;-57
2022/01/06 03:27:55;;;;;;;27.35;19.45;;;;;;;4.04;74.64;94385.06;5009949;28;20022;-58
2022/01/06 03:30:22;;;;;;;30.17;20.08;;;;;;;4.32;74.10;94414.38;5009546;28;20481;-57
2022/01/06 03:32:48;;;;;;;35.97;23.75;;;;;;;4.13;75.35;94402.50;5009823;28;20040;-58
2022/01/06 03:35:18;;;;;;;36.13;25.05;;;;;;;4.05;75.98;94404.59;5009707;28;20180;-58
2022/01/06 03:37:43;;;;;;;37.28;26.88;;;;;;;4.02;76.09;94420.03;5009935;28;20022;-58
2022/01/06 03:40:10;;;;;;;38.15;26.27;;;;;;;4.07;76.08;94407.91;5009337;28;20552;-58
2022/01/06 03:42:37;;;;;;;33.38;21.50;;;;;;;3.89;75.76;94378.97;5009704;28;20032;-57
2022/01/06 03:45:05;;;;;;;31.85;22.15;;;;;;;3.98;75.72;94396.38;5009792;28;20377;-58
2022/01/06 03:47:31;;;;;;;36.58;21.52;;;;;;;4.21;75.30;94418.28;5009460;28;20104;-58
2022/01/06 03:49:56;;;;;;;31.40;21.48;;;;;;;4.12;75.33;94395.75;5009379;28;20160;-57
2022/01/06 03:52:22;;;;;;;33.78;22.92;;;;;;;4.05;75.72;94390.09;5009063;28;20022;-57
2022/01/06 03:54:47;;;;;;;33.17;21.27;;;;;;;4.27;74.82;94417.16;5009535;28;20036;-58
2022/01/06 03:57:13;;;;;;;28.90;19.00;;;;;;;4.18;74.77;94400.56;5009368;28;20077;-58
2022/01/06 03:59:38;;;;;;;29.30;18.65;;;;;;;3.52;74.79;94308.47;5009382;28;20041;-56
2022/01/06 04:02:05;;;;;;;28.42;18.52;;;;;;;3.97;75.46;94420.25;5009283;28;20052;-57
2022/01/06 04:04:31;;;;;;;28.17;19.15;;;;;;;3.63;76.53;94392.94;5008304;28;20029;-58
2022/01/06 04:06:56;;;;;;;29.00;18.38;;;;;;;3.91;76.36;94432.47;5008651;28;20026;-59
2022/01/06 04:09:22;;;;;;;29.08;18.98;;;;;;;3.97;75.28;94437.28;5009004;28;20037;-58
2022/01/06 04:11:47;;;;;;;29.50;19.13;;;;;;;3.78;76.04;94404.16;5009454;28;20022;-58
2022/01/06 04:14:12;;;;;;;27.80;18.42;;;;;;;3.62;76.89;94420.16;5009114;28;20017;-57
2022/01/06 04:16:40;;;;;;;29.20;19.50;;;;;;;3.67;77.50;94425.03;5008793;28;20033;-59
2022/01/06 04:19:05;;;;;;;26.83;18.95;;;;;;;3.68;77.05;94426.69;5008981;28;20699;-58
2022/01/06 04:21:31;;;;;;;30.75;19.63;;;;;;;3.75;77.36;94424.69;5008973;28;20033;-59
2022/01/06 04:23:56;;;;;;;24.63;17.50;;;;;;;3.99;74.75;94415.91;5009096;28;20053;-57
2022/01/06 04:26:22;;;;;;;27.23;18.27;;;;;;;3.82;74.90;94419.25;5009066;28;20030;-60
2022/01/06 04:28:47;;;;;;;31.83;20.38;;;;;;;3.80;76.52;94441.41;5008723;28;20029;-59
2022/01/06 04:31:13;;;;;;;34.60;22.92;;;;;;;3.65;76.69;94447.22;5008607;28;20559;-58
2022/01/06 04:33:38;;;;;;;37.55;25.17;;;;;;;3.71;77.14;94458.91;5008944;28;20038;-60
2022/01/06 04:36:04;;;;;;;60.17;38.78;;;;;;;3.61;77.42;94449.09;5008926;28;20041;-57
2022/01/06 04:38:31;;;;;;;61.17;37.58;;;;;;;3.70;76.74;94450.41;5008621;28;20116;-57
2022/01/06 04:40:57;;;;;;;53.30;36.33;;;;;;;3.68;76.95;94445.38;5008526;28;20022;-58
2022/01/06 04:43:23;;;;;;;65.10;41.60;;;;;;;3.60;76.92;94416.84;5009015;28;20048;-55
2022/01/06 04:45:49;;;;;;;36.53;22.58;;;;;;;4.02;76.09;94488.94;5008997;28;20045;-60
2022/01/06 04:48:14;;;;;;;53.03;34.78;;;;;;;3.92;76.41;94454.50;5008705;28;20124;-57
2022/01/06 04:50:40;;;;;;;66.07;39.80;;;;;;;3.74;76.79;94474.88;5008553;28;20026;-60
2022/01/06 04:53:05;;;;;;;69.03;44.65;;;;;;;3.67;77.25;94465.81;5008365;28;20026;-56
2022/01/06 04:55:30;;;;;;;71.68;44.85;;;;;;;3.24;77.24;94404.03;5008793;28;20053;-57
2022/01/06 04:57:56;;;;;;;70.68;44.33;;;;;;;3.63;77.62;94471.97;5008337;28;20058;-57
2022/01/06 05:00:22;;;;;;;68.00;42.35;;;;;;;3.41;77.12;94410.91;5008480;28;20034;-58
2022/01/06 05:02:47;;;;;;;61.20;38.75;;;;;;;4.07;76.21;94478.50;5008443;28;20049;-59
2022/01/06 05:05:13;;;;;;;30.65;21.77;;;;;;;3.84;75.10;94453.16;5008057;28;20108;-58
2022/01/06 05:07:40;;;;;;;41.20;27.42;;;;;;;3.76;76.08;94472.25;5008811;28;20022;-56
2022/01/06 05:10:06;;;;;;;32.17;21.48;;;;;;;3.92;75.99;94477.47;5008554;28;20066;-58
2022/01/06 05:12:33;;;;;;;30.08;21.00;;;;;;;3.55;76.63;94446.81;5008353;28;20049;-58
2022/01/06 05:14:58;;;;;;;35.75;24.80;;;;;;;3.61;77.39;94450.81;5008438;28;20037;-59
2022/01/06 05:17:24;;;;;;;29.98;18.30;;;;;;;3.75;76.41;94455.28;5010556;28;20026;-56
2022/01/06 05:19:49;;;;;;;38.22;24.63;;;;;;;3.71;76.34;94446.97;5011281;28;20103;-58
2022/01/06 05:22:15;;;;;;;32.65;23.15;;;;;;;3.43;77.37;94450.75;5012111;28;20523;-60
2022/01/06 05:24:40;;;;;;;29.58;19.45;;;;;;;3.73;77.21;94477.50;5012206;28;20108;-57
2022/01/06 05:27:09;;;;;;;30.63;19.83;;;;;;;3.35;76.86;94423.94;5012313;28;20030;-57
2022/01/06 05:29:35;;;;;;;24.35;17.48;;;;;;;3.53;76.99;94468.19;5011909;28;20095;-58
2022/01/06 05:32:00;;;;;;;26.45;17.48;;;;;;;3.52;76.74;94441.03;5012163;28;20705;-58
2022/01/06 05:34:26;;;;;;;26.65;17.13;;;;;;;3.72;76.40;94466.44;5008475;28;20040;-58
2022/01/06 05:36:51;;;;;;;26.80;17.98;;;;;;;3.73;76.56;94475.75;5007812;28;20045;-58
2022/01/06 05:39:16;;;;;;;27.42;18.38;;;;;;;3.89;76.34;94469.94;5000140;28;20017;-57
2022/01/06 05:41:42;;;;;;;35.88;19.05;;;;;;;4.01;75.67;94452.38;5005760;28;20026;-59
2022/01/06 05:44:07;;;;;;;22.70;16.58;;;;;;;4.08;75.33;94475.88;5008368;28;20022;-58
2022/01/06 05:46:33;;;;;;;23.38;16.52;;;;;;;4.07;75.22;94468.28;5007630;28;20120;-58
2022/01/06 05:48:58;;;;;;;25.83;16.75;;;;;;;3.74;75.58;94438.31;5007743;28;20030;-62
2022/01/06 05:51:24;;;;;;;22.88;16.05;;;;;;;3.92;76.17;94474.91;5008029;28;20033;-58
2022/01/06 05:53:50;;;;;;;23.70;16.23;;;;;;;3.94;76.14;94476.53;5004205;28;20037;-58
2022/01/06 05:56:16;;;;;;;24.67;15.52;;;;;;;3.87;76.06;94449.66;5006427;28;20751;-57
2022/01/06 05:58:41;;;;;;;27.08;16.42;;;;;;;3.87;75.83;94447.09;5005302;28;20037;-58
2022/01/06 06:01:07;;;;;;;24.70;16.48;;;;;;;3.88;76.72;94481.06;5008037;28;20045;-57
2022/01/06 06:03:34;;;;;;;21.00;13.48;;;;;;;4.00;75.47;94466.03;5010200;28;20033;-56
2022/01/06 06:06:00;;;;;;;21.58;15.60;;;;;;;3.83;76.03;94438.72;5006405;28;20030;-57
2022/01/06 06:08:26;;;;;;;23.65;16.75;;;;;;;3.89;76.67;94475.91;5009597;28;20033;-57
2022/01/06 06:10:51;;;;;;;24.63;16.38;;;;;;;3.88;76.73;94458.94;5006617;28;20053;-56
2022/01/06 06:13:17;;;;;;;25.65;16.58;;;;;;;3.77;75.94;94433.94;5008151;28;20026;-56
2022/01/06 06:15:42;;;;;;;25.98;16.25;;;;;;;3.74;76.55;94443.44;5007626;28;20095;-56
2022/01/06 06:18:12;;;;;;;24.48;15.55;;;;;;;3.94;76.83;94478.25;5007208;28;20034;-54
2022/01/06 06:20:38;;;;;;;24.38;17.00;;;;;;;3.91;76.31;94458.78;5007553;28;20046;-52
2022/01/06 06:23:04;;;;;;;23.98;14.98;;;;;;;4.07;76.06;94479.34;5007723;28;20021;-55
2022/01/06 06:25:30;;;;;;;22.85;16.27;;;;;;;4.09;76.28;94476.72;5007203;28;20574;-56
2022/01/06 06:27:55;;;;;;;25.00;16.58;;;;;;;4.04;76.67;94490.50;5007548;28;20386;-56
2022/01/06 06:30:21;;;;;;;29.33;16.88;;;;;;;4.12;76.42;94476.56;5005974;28;20837;-54
2022/01/06 06:32:46;;;;;;;22.40;15.27;;;;;;;4.16;75.75;94475.53;5006752;28;20033;-54
2022/01/06 06:35:12;;;;;;;23.67;15.88;;;;;;;4.37;75.33;94487.28;5006656;28;20108;-54
2022/01/06 06:37:38;;;;;;;21.08;15.48;;;;;;;4.28;75.79;94487.72;5006397;28;20036;-57
2022/01/06 06:40:07;;;;;;;23.23;16.20;;;;;;;4.33;75.00;94475.56;5007036;28;20551;-53
2022/01/06 06:42:33;;;;;;;26.70;16.88;;;;;;;4.26;74.91;94461.41;5007082;28;20406;-54
2022/01/06 06:44:58;;;;;;;28.77;17.20;;;;;;;4.51;74.81;94489.19;5007449;28;20040;-56
2022/01/06 06:47:24;;;;;;;25.75;18.00;;;;;;;4.34;75.56;94471.28;5006469;28;20461;-56
2022/01/06 06:49:50;;;;;;;29.67;18.63;;;;;;;4.52;75.27;94501.03;5018532;28;20136;-57
2022/01/06 06:52:16;;;;;;;30.13;17.52;;;;;;;4.58;74.19;94482.06;5005838;28;20117;-57
2022/01/06 06:54:41;;;;;;;27.90;18.45;;;;;;;4.18;74.11;94405.66;5007357;28;20026;-56
2022/01/06 06:57:08;;;;;;;30.17;18.27;;;;;;;4.77;73.41;94476.88;5006462;28;20049;-56
2022/01/06 06:59:34;;;;;;;26.45;18.40;;;;;;;4.71;74.67;94487.41;5006994;28;20056;-58
2022/01/06 07:01:59;;;;;;;28.38;16.63;;;;;;;4.79;73.23;94487.84;5006189;28;20033;-58
2022/01/06 07:04:25;;;;;;;31.77;18.65;;;;;;;4.71;74.02;94495.88;5006150;28;20033;-53
2022/01/06 07:06:50;;;;;;;32.28;18.20;;;;;;;4.71;74.15;94498.44;5006402;28;20030;-58
2022/01/06 07:09:16;;;;;;;26.35;18.35;;;;;;;4.67;74.73;94493.53;5006230;28;20045;-57
2022/01/06 07:11:41;;;;;;;29.08;18.60;;;;;;;4.89;73.86;94519.72;5006197;28;20500;-60
2022/01/06 07:14:07;;;;;;;33.90;20.63;;;;;;;5.03;72.97;94519.03;5006266;28;20025;-58
2022/01/06 07:16:32;;;;;;;30.65;19.45;;;;;;;5.06;73.01;94511.22;5006067;28;20454;-58
2022/01/06 07:18:58;;;;;;;27.50;19.35;;;;;;;5.06;73.19;94518.88;5005645;28;20034;-60
2022/01/06 07:21:23;;;;;;;28.25;19.08;;;;;;;5.24;72.60;94524.81;5005883;28;20026;-58
2022/01/06 07:23:49;;;;;;;27.27;18.35;;;;;;;5.25;72.53;94512.88;5005757;28;20037;-60
2022/01/06 07:26:14;;;;;;;26.52;18.73;;;;;;;5.40;72.02;94513.81;5006605;28;20046;-61
2022/01/06 07:28:40;;;;;;;27.77;17.70;;;;;;;5.62;71.81;94510.97;5005562;28;20069;-59
2022/01/06 07:31:05;;;;;;;24.00;17.67;;;;;;;5.69;71.58;94508.03;5007174;28;20100;-59
2022/01/06 07:33:31;;;;;;;29.73;18.45;;;;;;;5.70;71.03;94506.28;5007928;28;20058;-58
2022/01/06 07:35:57;;;;;;;28.48;19.05;;;;;;;6.04;70.16;94513.06;5007363;28;20026;-62
2022/01/06 07:38:24;;;;;;;32.72;20.50;;;;;;;5.96;70.40;94522.03;5008832;28;20532;-59
2022/01/06 07:40:49;;;;;;;28.15;17.88;;;;;;;6.12;69.77;94547.69;5006778;28;20022;-59
2022/01/06 07:43:15;;;;;;;24.40;17.88;;;;;;;6.10;69.77;94523.88;5009779;28;20033;-59
2022/01/06 07:45:40;;;;;;;25.35;16.42;;;;;;;6.11;69.60;94518.66;5009766;28;20060;-59
2022/01/06 07:48:15;;;;;;;26.73;19.08;;;;;;;6.28;69.17;94528.03;5009707;28;20183;-59
2022/01/06 07:50:42;;;;;;;26.52;18.08;;;;;;;6.43;67.77;94521.25;5009400;28;20049;-59
2022/01/06 07:53:07;;;;;;;26.65;17.38;;;;;;;6.47;68.12;94519.34;5008667;28;20096;-59
2022/01/06 07:55:33;;;;;;;26.30;17.15;;;;;;;6.64;67.76;94539.72;5009724;28;20026;-58
2022/01/06 07:57:59;;;;;;;28.30;18.17;;;;;;;6.67;67.21;94506.22;5009123;28;20048;-59
2022/01/06 08:00:25;;;;;;;27.42;17.42;;;;;;;6.72;66.91;94517.06;5009192;28;20038;-59
2022/01/06 08:02:51;;;;;;;25.27;18.20;;;;;;;6.91;66.94;94554.47;5009359;28;20091;-58
2022/01/06 08:05:19;;;;;;;26.00;18.00;;;;;;;6.97;65.91;94536.19;5008652;28;20073;-57
2022/01/06 08:07:45;;;;;;;27.58;18.23;;;;;;;7.10;65.71;94528.59;5009050;28;20041;-59
2022/01/06 08:10:11;;;;;;;31.02;18.17;;;;;;;7.18;65.15;94513.59;5009117;28;20401;-59
2022/01/06 08:12:37;;;;;;;22.90;16.75;;;;;;;7.29;64.39;94541.22;5008923;28;20474;-60
2022/01/06 08:15:04;;;;;;;22.30;16.20;;;;;;;7.46;64.17;94548.75;5008862;28;20025;-59
2022/01/06 08:17:29;;;;;;;30.30;19.95;;;;;;;7.45;64.34;94546.28;5008320;28;20045;-60
2022/01/06 08:19:55;;;;;;;30.15;19.23;;;;;;;7.53;64.08;94549.22;5009141;28;20461;-58
2022/01/06 08:22:21;;;;;;;31.65;22.48;;;;;;;7.49;63.48;94509.25;5008708;28;20057;-60
2022/01/06 08:24:47;;;;;;;24.25;16.65;;;;;;;7.60;62.14;94500.94;5008839;28;20108;-59
2022/01/06 08:27:12;;;;;;;31.05;21.10;;;;;;;9.22;59.11;94525.13;5009048;28;20030;-59
2022/01/06 08:29:39;;;;;;;24.52;15.57;;;;;;;13.06;48.28;94523.09;5008511;28;20046;-59
2022/01/06 08:32:05;;;;;;;31.92;20.67;;;;;;;15.40;41.81;94505.03;5009030;28;20256;-61
2022/01/06 08:34:31;;;;;;;25.85;18.52;;;;;;;16.76;38.19;94514.13;5008681;28;20600;-60
2022/01/06 08:36:56;;;;;;;21.10;14.95;;;;;;;18.16;35.64;94499.63;5008792;28;20431;-60
2022/01/06 08:39:22;;;;;;;21.52;16.35;;;;;;;19.12;32.35;94526.38;5008736;28;20029;-59
2022/01/06 08:41:49;;;;;;;24.08;18.02;;;;;;;20.04;31.48;94528.84;5008443;28;20038;-62
2022/01/06 08:44:15;;;;;;;20.67;15.30;;;;;;;20.97;30.01;94520.34;5009037;28;20132;-60
2022/01/06 08:46:41;;;;;;;23.48;16.40;;;;;;;20.81;28.64;94502.09;5008698;28;20053;-61
2022/01/06 08:49:11;;;;;;;22.63;16.02;;;;;;;22.01;27.34;94515.47;5008333;28;20089;-60
2022/01/06 08:51:37;;;;;;;23.50;17.05;;;;;;;22.54;25.72;94431.34;5004165;28;20045;-64
2022/01/06 08:54:03;;;;;;;22.77;16.67;;;;;;;23.20;25.71;94498.00;5006533;28;20033;-61
2022/01/06 08:56:29;;;;;;;25.13;19.17;;;;;;;24.29;24.41;94510.03;5008312;28;20038;-59
2022/01/06 08:58:55;;;;;;;22.50;18.55;;;;;;;23.36;24.33;94517.97;5008865;28;20405;-61
2022/01/06 09:01:20;;;;;;;19.77;14.75;;;;;;;23.73;24.23;94484.50;5008188;28;20041;-61
2022/01/06 09:03:46;;;;;;;20.85;15.07;;;;;;;24.84;22.79;94473.19;5008261;28;20036;-62
2022/01/06 09:06:11;;;;;;;23.95;17.33;;;;;;;25.91;21.54;94500.56;5007568;28;20022;-63
2022/01/06 09:08:37;;;;;;;22.23;16.95;;;;;;;25.67;20.93;94362.06;5008311;28;20100;-62
2022/01/06 09:11:02;;;;;;;23.80;18.27;;;;;;;26.16;21.07;94487.53;5006669;28;20045;-62
2022/01/06 09:13:28;;;;;;;23.73;17.95;;;;;;;26.96;20.18;94497.88;5008292;28;20585;-64
2022/01/06 09:15:54;;;;;;;21.45;19.13;;;;;;;26.65;19.91;94495.19;5007001;28;20029;-62
2022/01/06 09:18:19;;;;;;;26.02;19.00;;;;;;;26.13;20.59;94485.31;5008075;28;20081;-65
2022/01/06 09:20:45;;;;;;;27.45;22.20;;;;;;;27.95;18.59;94467.53;5036115;28;20176;-62
2022/01/06 09:23:10;;;;;;;28.75;21.65;;;;;;;29.00;17.81;94473.75;4988698;28;20082;-61
2022/01/06 09:25:36;;;;;;;24.77;22.02;;;;;;;29.12;17.66;94392.31;4988242;28;20100;-61
2022/01/06 09:28:01;;;;;;;28.40;21.83;;;;;;;29.04;17.28;94493.47;4988183;28;20121;-62
2022/01/06 09:30:27;;;;;;;24.92;19.33;;;;;;;28.63;18.62;94476.44;4987684;28;20046;-61
2022/01/06 09:32:53;;;;;;;23.73;20.83;;;;;;;30.34;16.92;94440.59;4988480;28;20100;-63
2022/01/06 09:35:19;;;;;;;26.92;21.95;;;;;;;31.48;15.42;94458.50;5005452;28;20030;-61
2022/01/06 09:37:45;;;;;;;22.90;19.13;;;;;;;31.86;15.50;94450.84;5007502;28;20116;-63
2022/01/06 09:40:11;;;;;;;30.45;22.80;;;;;;;31.57;15.69;94458.94;5007534;28;20034;-60
2022/01/06 09:42:36;;;;;;;23.33;20.05;;;;;;;30.60;16.16;94473.88;5007322;28;20073;-63
2022/01/06 09:45:03;;;;;;;27.52;24.02;;;;;;;29.40;17.21;94447.47;5007597;28;20102;-62
2022/01/06 09:47:30;;;;;;;26.00;21.13;;;;;;;30.46;16.29;94377.56;4992250;28;20084;-65
2022/01/06 09:49:57;;;;;;;24.40;19.08;;;;;;;31.56;15.06;94469.84;4988447;28;20037;-61
2022/01/06 09:52:23;;;;;;;24.42;20.40;;;;;;;30.62;16.04;94455.03;4989698;28;20046;-62
2022/01/06 09:54:49;;;;;;;28.38;21.45;;;;;;;28.86;17.11;94430.63;5006283;28;20504;-64
2022/01/06 09:57:14;;;;;;;27.13;20.55;;;;;;;29.49;17.44;94458.56;5007264;28;20046;-64
2022/01/06 09:59:43;;;;;;;24.27;20.95;;;;;;;30.92;15.93;94450.28;5007103;28;20386;-61
2022/01/06 10:02:16;;;;;;;27.05;21.85;;;;;;;32.06;14.88;94455.69;5007409;28;20029;-66
2022/01/06 10:04:45;;;;;;;28.05;22.15;;;;;;;32.18;14.57;94459.09;5009696;28;20573;-65
2022/01/06 10:07:11;;;;;;;31.73;21.67;;;;;;;31.54;15.01;94438.09;5009990;28;20030;-63
2022/01/06 10:09:39;;;;;;;28.40;24.15;;;;;;;30.59;15.48;94438.47;4992298;28;20026;-62
2022/01/06 10:12:10;;;;;;;32.25;24.77;;;;;;;31.57;15.71;94453.63;4991269;28;20042;-62
2022/01/06 10:14:43;;;;;;;29.05;23.05;;;;;;;32.01;15.40;94459.09;4991533;28;20573;-60
2022/01/06 10:17:29;;;;;;;26.77;23.30;;;;;;;32.69;14.50;94448.28;4996624;28;20127;-62
2022/01/06 10:19:55;;;;;;;27.10;23.92;;;;;;;33.19;14.21;94440.31;5010624;28;20033;-62
2022/01/06 10:22:22;;;;;;;31.65;24.55;;;;;;;33.36;14.04;94440.22;4994258;28;20041;-62
2022/01/06 10:24:49;;;;;;;28.30;23.52;;;;;;;34.33;13.33;94443.63;4990918;28;20069;-67
2022/01/06 10:27:18;;;;;;;28.52;23.35;;;;;;;34.79;12.85;94435.81;5006088;28;20034;-60
2022/01/06 10:29:46;;;;;;;29.40;20.20;;;;;;;34.27;13.42;94441.19;4990601;28;20041;-63
2022/01/06 10:32:20;;;;;;;25.20;21.63;;;;;;;31.94;14.55;94444.31;4990738;28;20469;-61
2022/01/06 10:34:49;;;;;;;32.40;24.92;;;;;;;33.16;14.46;94433.63;4990688;28;20027;-61
2022/01/06 10:37:27;;;;;;;32.00;23.67;;;;;;;34.50;13.46;94440.78;5005324;28;20390;-63
2022/01/06 10:39:57;;;;;;;29.73;24.88;;;;;;;34.40;13.00;94432.69;5008236;28;20034;-61
2022/01/06 10:42:25;;;;;;;34.08;22.75;;;;;;;32.43;14.13;94429.28;5009759;28;20045;-62
2022/01/06 10:45:09;;;;;;;30.42;21.40;;;;;;;33.26;13.63;94427.56;5010706;28;20037;-62
2022/01/06 10:47:41;;;;;;;22.33;18.02;;;;;;;34.77;12.94;94423.78;5009749;28;20038;-65
2022/01/06 10:50:26;;;;;;;25.52;20.52;;;;;;;35.24;12.15;94436.25;5009939;28;20088;-62
2022/01/06 10:52:54;;;;;;;27.90;22.50;;;;;;;35.65;12.12;94427.41;4987780;28;20031;-64
2022/01/06 10:55:29;;;;;;;29.73;21.00;;;;;;;35.78;11.77;94418.88;4990394;28;20117;-66
2022/01/06 10:58:07;;;;;;;28.58;22.30;;;;;;;35.84;12.17;94374.06;4989818;28;20591;-63
2022/01/06 11:00:36;;;;;;;25.05;21.17;;;;;;;36.22;11.84;94412.88;4990104;28;20089;-64
2022/01/06 11:03:22;;;;;;;30.67;23.00;;;;;;;36.73;11.42;94422.69;4989899;28;20085;-67
2022/01/06 11:05:53;;;;;;;28.80;21.98;;;;;;;36.46;11.53;94416.88;4992049;28;20029;-63
2022/01/06 11:08:26;;;;;;;26.23;20.30;;;;;;;36.68;11.51;94408.44;5009190;28;20524;-62
2022/01/06 11:13:32;;;;;;;23.88;19.00;;;;;;;35.84;12.15;94400.88;5009714;28;20057;-63
2022/01/06 11:15:58;;;;;;;22.85;17.67;;;;;;;34.90;11.90;94401.06;5009186;28;20105;-61
2022/01/06 11:18:24;;;;;;;16.50;10.50;;;;;;;33.54;12.27;94396.28;5009533;28;20174;-62
2022/01/06 11:20:51;;;;;;;18.58;12.48;;;;;;;35.28;11.91;94373.00;5004810;28;20189;-61
2022/01/06 11:23:21;;;;;;;17.10;13.38;;;;;;;34.27;12.23;94393.81;4989834;28;20022;-64
2022/01/06 11:25:47;;;;;;;19.02;11.20;;;;;;;33.06;13.22;94393.41;4989578;28;20037;-61
2022/01/06 11:28:13;;;;;;;12.15;9.38;;;;;;;35.04;11.08;94396.78;4989891;28;20022;-62
2022/01/06 11:30:47;;;;;;;13.10;7.40;;;;;;;35.61;10.63;94383.44;4989522;28;20100;-61